Terminal Aerodrome Forecast
Issued by NWS Missoula, MT

Home | Current Version | Previous Version | Text Only | Print | Product List | Glossary On
Versions: 1 2 3 4 5 6 7 8 9 10 11 12
000
FTUS45 KMSO 101100
TAFGPI
TAF
KGPI 101120Z 1012/1112 00000KT P6SM SKC
     FM102100 19010KT P6SM FEW120=

USA.gov is the U.S. government's official web portal to all federal, state and local government web resources and services.